sensor_id;sensor_type;location;lat;lon;timestamp;temperature;humidity
80296;DHT22;74188;42.148;24.762;2024-02-26T00:00:33;13.80;64.10
80296;DHT22;74188;42.148;24.762;2024-02-26T00:03:00;13.80;63.90
80296;DHT22;74188;42.148;24.762;2024-02-26T00:05:26;13.80;63.70
80296;DHT22;74188;42.148;24.762;2024-02-26T00:07:52;13.80;63.80
80296;DHT22;74188;42.148;24.762;2024-02-26T00:10:17;13.90;63.60
80296;DHT22;74188;42.148;24.762;2024-02-26T00:12:43;13.90;63.40
80296;DHT22;74188;42.148;24.762;2024-02-26T00:15:10;14.00;63.40
80296;DHT22;74188;42.148;24.762;2024-02-26T00:17:36;14.00;63.30
80296;DHT22;74188;42.148;24.762;2024-02-26T00:20:05;13.90;63.20
80296;DHT22;74188;42.148;24.762;2024-02-26T00:22:34;13.90;63.30
80296;DHT22;74188;42.148;24.762;2024-02-26T00:25:00;13.90;63.20
80296;DHT22;74188;42.148;24.762;2024-02-26T00:27:25;14.00;63.10
80296;DHT22;74188;42.148;24.762;2024-02-26T00:29:51;14.00;62.70
80296;DHT22;74188;42.148;24.762;2024-02-26T00:32:17;14.00;62.90
80296;DHT22;74188;42.148;24.762;2024-02-26T00:34:42;14.00;62.80
80296;DHT22;74188;42.148;24.762;2024-02-26T00:37:08;14.00;62.70
80296;DHT22;74188;42.148;24.762;2024-02-26T00:39:33;14.00;63.10
80296;DHT22;74188;42.148;24.762;2024-02-26T00:41:59;13.80;63.20
80296;DHT22;74188;42.148;24.762;2024-02-26T00:44:25;13.80;63.30
80296;DHT22;74188;42.148;24.762;2024-02-26T00:46:50;13.80;63.30
80296;DHT22;74188;42.148;24.762;2024-02-26T00:49:16;13.80;63.40
80296;DHT22;74188;42.148;24.762;2024-02-26T00:51:42;13.80;63.20
80296;DHT22;74188;42.148;24.762;2024-02-26T00:54:07;13.90;63.20
80296;DHT22;74188;42.148;24.762;2024-02-26T00:56:33;13.90;63.10
80296;DHT22;74188;42.148;24.762;2024-02-26T00:58:59;14.00;62.80
80296;DHT22;74188;42.148;24.762;2024-02-26T01:01:24;14.00;62.70
80296;DHT22;74188;42.148;24.762;2024-02-26T01:03:50;13.90;63.20
80296;DHT22;74188;42.148;24.762;2024-02-26T01:06:16;13.70;64.10
80296;DHT22;74188;42.148;24.762;2024-02-26T01:08:41;13.60;65.00
80296;DHT22;74188;42.148;24.762;2024-02-26T01:11:07;13.50;65.40
80296;DHT22;74188;42.148;24.762;2024-02-26T01:13:33;13.40;65.80
80296;DHT22;74188;42.148;24.762;2024-02-26T01:15:58;13.30;66.00
80296;DHT22;74188;42.148;24.762;2024-02-26T01:18:26;13.30;66.10
80296;DHT22;74188;42.148;24.762;2024-02-26T01:20:51;13.40;65.20
80296;DHT22;74188;42.148;24.762;2024-02-26T01:23:20;13.60;64.60
80296;DHT22;74188;42.148;24.762;2024-02-26T01:25:45;13.50;64.90
80296;DHT22;74188;42.148;24.762;2024-02-26T01:28:11;13.40;65.30
80296;DHT22;74188;42.148;24.762;2024-02-26T01:30:37;13.50;65.40
80296;DHT22;74188;42.148;24.762;2024-02-26T01:33:02;13.40;65.20
80296;DHT22;74188;42.148;24.762;2024-02-26T01:35:29;13.40;65.50
80296;DHT22;74188;42.148;24.762;2024-02-26T01:37:55;13.40;65.50
80296;DHT22;74188;42.148;24.762;2024-02-26T01:40:21;13.60;65.10
80296;DHT22;74188;42.148;24.762;2024-02-26T01:42:47;13.60;65.00
80296;DHT22;74188;42.148;24.762;2024-02-26T01:45:17;13.60;64.70
80296;DHT22;74188;42.148;24.762;2024-02-26T01:47:52;13.60;65.30
80296;DHT22;74188;42.148;24.762;2024-02-26T01:50:19;13.50;65.20
80296;DHT22;74188;42.148;24.762;2024-02-26T01:52:49;13.60;65.20
80296;DHT22;74188;42.148;24.762;2024-02-26T01:55:15;13.60;64.90
80296;DHT22;74188;42.148;24.762;2024-02-26T01:57:42;13.60;65.10
80296;DHT22;74188;42.148;24.762;2024-02-26T02:00:09;13.60;65.20
80296;DHT22;74188;42.148;24.762;2024-02-26T02:02:35;13.70;65.00
80296;DHT22;74188;42.148;24.762;2024-02-26T02:05:02;13.60;64.80
80296;DHT22;74188;42.148;24.762;2024-02-26T02:07:29;13.60;64.90
80296;DHT22;74188;42.148;24.762;2024-02-26T02:09:54;13.70;64.80
80296;DHT22;74188;42.148;24.762;2024-02-26T02:12:21;13.70;65.60
80296;DHT22;74188;42.148;24.762;2024-02-26T02:14:47;13.70;64.40
80296;DHT22;74188;42.148;24.762;2024-02-26T02:17:13;13.70;64.20
80296;DHT22;74188;42.148;24.762;2024-02-26T02:19:38;13.70;64.40
80296;DHT22;74188;42.148;24.762;2024-02-26T02:22:04;13.70;64.50
80296;DHT22;74188;42.148;24.762;2024-02-26T02:24:30;13.70;64.40
80296;DHT22;74188;42.148;24.762;2024-02-26T02:26:55;13.60;64.20
80296;DHT22;74188;42.148;24.762;2024-02-26T02:29:21;13.60;64.20
80296;DHT22;74188;42.148;24.762;2024-02-26T02:31:47;13.50;64.40
80296;DHT22;74188;42.148;24.762;2024-02-26T02:34:14;13.50;64.50
80296;DHT22;74188;42.148;24.762;2024-02-26T02:36:52;13.50;64.60
80296;DHT22;74188;42.148;24.762;2024-02-26T02:39:19;13.50;64.50
80296;DHT22;74188;42.148;24.762;2024-02-26T02:41:44;13.50;64.10
80296;DHT22;74188;42.148;24.762;2024-02-26T02:44:10;13.50;64.40
80296;DHT22;74188;42.148;24.762;2024-02-26T02:46:36;13.50;64.40
80296;DHT22;74188;42.148;24.762;2024-02-26T02:49:02;13.50;64.00
80296;DHT22;74188;42.148;24.762;2024-02-26T02:51:27;13.50;63.90
80296;DHT22;74188;42.148;24.762;2024-02-26T02:53:53;13.50;63.80
80296;DHT22;74188;42.148;24.762;2024-02-26T02:56:19;13.50;63.90
80296;DHT22;74188;42.148;24.762;2024-02-26T02:58:44;13.50;64.00
80296;DHT22;74188;42.148;24.762;2024-02-26T03:01:10;13.50;64.00
80296;DHT22;74188;42.148;24.762;2024-02-26T03:03:36;13.40;64.40
80296;DHT22;74188;42.148;24.762;2024-02-26T03:06:03;13.30;64.50
80296;DHT22;74188;42.148;24.762;2024-02-26T03:08:29;13.20;64.90
80296;DHT22;74188;42.148;24.762;2024-02-26T03:10:54;13.30;65.00
80296;DHT22;74188;42.148;24.762;2024-02-26T03:13:20;13.20;65.00
80296;DHT22;74188;42.148;24.762;2024-02-26T03:15:46;13.30;64.90
80296;DHT22;74188;42.148;24.762;2024-02-26T03:18:11;13.30;64.90
80296;DHT22;74188;42.148;24.762;2024-02-26T03:20:37;13.20;66.20
80296;DHT22;74188;42.148;24.762;2024-02-26T03:23:03;13.30;65.10
80296;DHT22;74188;42.148;24.762;2024-02-26T03:25:29;13.30;65.10
80296;DHT22;74188;42.148;24.762;2024-02-26T03:27:54;13.30;65.40
80296;DHT22;74188;42.148;24.762;2024-02-26T03:30:20;13.20;65.70
80296;DHT22;74188;42.148;24.762;2024-02-26T03:32:46;13.30;65.80
80296;DHT22;74188;42.148;24.762;2024-02-26T03:35:13;13.20;65.90
80296;DHT22;74188;42.148;24.762;2024-02-26T03:37:38;13.20;65.80
80296;DHT22;74188;42.148;24.762;2024-02-26T03:40:04;13.10;67.00
80296;DHT22;74188;42.148;24.762;2024-02-26T03:42:30;13.10;65.90
80296;DHT22;74188;42.148;24.762;2024-02-26T03:44:56;13.10;66.10
80296;DHT22;74188;42.148;24.762;2024-02-26T03:47:21;13.20;66.10
80296;DHT22;74188;42.148;24.762;2024-02-26T03:49:47;13.20;65.90
80296;DHT22;74188;42.148;24.762;2024-02-26T03:52:14;13.10;66.30
80296;DHT22;74188;42.148;24.762;2024-02-26T03:54:40;13.10;66.30
80296;DHT22;74188;42.148;24.762;2024-02-26T03:57:06;13.00;66.50
80296;DHT22;74188;42.148;24.762;2024-02-26T03:59:31;13.00;66.60
80296;DHT22;74188;42.148;24.762;2024-02-26T04:01:57;12.90;66.70
80296;DHT22;74188;42.148;24.762;2024-02-26T04:04:23;12.90;66.80
80296;DHT22;74188;42.148;24.762;2024-02-26T04:06:48;12.90;66.90
80296;DHT22;74188;42.148;24.762;2024-02-26T04:09:14;12.70;67.20
80296;DHT22;74188;42.148;24.762;2024-02-26T04:11:40;12.70;67.50
80296;DHT22;74188;42.148;24.762;2024-02-26T04:14:06;12.70;67.30
80296;DHT22;74188;42.148;24.762;2024-02-26T04:16:34;12.90;66.90
80296;DHT22;74188;42.148;24.762;2024-02-26T04:19:01;12.80;66.60
80296;DHT22;74188;42.148;24.762;2024-02-26T04:21:26;12.90;66.30
80296;DHT22;74188;42.148;24.762;2024-02-26T04:23:52;12.80;66.40
80296;DHT22;74188;42.148;24.762;2024-02-26T04:26:21;12.90;67.40
80296;DHT22;74188;42.148;24.762;2024-02-26T04:28:47;12.80;66.10
80296;DHT22;74188;42.148;24.762;2024-02-26T04:31:13;12.80;65.90
80296;DHT22;74188;42.148;24.762;2024-02-26T04:33:38;12.80;65.90
80296;DHT22;74188;42.148;24.762;2024-02-26T04:36:04;12.80;66.00
80296;DHT22;74188;42.148;24.762;2024-02-26T04:38:30;12.70;65.70
80296;DHT22;74188;42.148;24.762;2024-02-26T04:40:56;12.70;65.80
80296;DHT22;74188;42.148;24.762;2024-02-26T04:43:21;12.60;66.00
80296;DHT22;74188;42.148;24.762;2024-02-26T04:45:47;12.60;66.10
80296;DHT22;74188;42.148;24.762;2024-02-26T04:48:13;12.60;66.00
80296;DHT22;74188;42.148;24.762;2024-02-26T04:50:39;12.60;66.00
80296;DHT22;74188;42.148;24.762;2024-02-26T04:53:04;12.60;65.70
80296;DHT22;74188;42.148;24.762;2024-02-26T04:55:30;12.60;65.50
80296;DHT22;74188;42.148;24.762;2024-02-26T04:57:56;12.60;65.50
80296;DHT22;74188;42.148;24.762;2024-02-26T05:00:21;12.60;65.10
80296;DHT22;74188;42.148;24.762;2024-02-26T05:02:47;12.60;65.10
80296;DHT22;74188;42.148;24.762;2024-02-26T05:05:13;12.70;64.90
80296;DHT22;74188;42.148;24.762;2024-02-26T05:07:42;12.60;64.80
80296;DHT22;74188;42.148;24.762;2024-02-26T05:10:09;12.60;64.80
80296;DHT22;74188;42.148;24.762;2024-02-26T05:12:35;12.60;65.00
80296;DHT22;74188;42.148;24.762;2024-02-26T05:15:02;12.70;64.30
80296;DHT22;74188;42.148;24.762;2024-02-26T05:17:27;12.70;64.30
80296;DHT22;74188;42.148;24.762;2024-02-26T05:19:53;12.40;65.00
80296;DHT22;74188;42.148;24.762;2024-02-26T05:22:19;12.40;65.60
80296;DHT22;74188;42.148;24.762;2024-02-26T05:24:45;12.30;65.80
80296;DHT22;74188;42.148;24.762;2024-02-26T05:27:10;12.40;65.60
80296;DHT22;74188;42.148;24.762;2024-02-26T05:29:37;12.50;65.40
80296;DHT22;74188;42.148;24.762;2024-02-26T05:32:04;12.60;65.00
80296;DHT22;74188;42.148;24.762;2024-02-26T05:34:30;12.60;66.20
80296;DHT22;74188;42.148;24.762;2024-02-26T05:36:56;12.60;65.10
80296;DHT22;74188;42.148;24.762;2024-02-26T05:39:21;12.60;64.90
80296;DHT22;74188;42.148;24.762;2024-02-26T05:41:47;12.70;64.80
80296;DHT22;74188;42.148;24.762;2024-02-26T05:44:14;12.70;65.20
80296;DHT22;74188;42.148;24.762;2024-02-26T05:46:41;12.70;65.10
80296;DHT22;74188;42.148;24.762;2024-02-26T05:49:07;12.70;64.90
80296;DHT22;74188;42.148;24.762;2024-02-26T05:51:33;12.80;64.50
80296;DHT22;74188;42.148;24.762;2024-02-26T05:53:58;12.90;64.30
80296;DHT22;74188;42.148;24.762;2024-02-26T05:56:24;12.90;64.30
80296;DHT22;74188;42.148;24.762;2024-02-26T05:58:50;12.90;64.20
80296;DHT22;74188;42.148;24.762;2024-02-26T06:01:17;13.00;64.10
80296;DHT22;74188;42.148;24.762;2024-02-26T06:03:43;13.00;63.90
80296;DHT22;74188;42.148;24.762;2024-02-26T06:06:10;13.10;63.70
80296;DHT22;74188;42.148;24.762;2024-02-26T06:08:36;13.10;63.60
80296;DHT22;74188;42.148;24.762;2024-02-26T06:11:08;13.10;63.70
80296;DHT22;74188;42.148;24.762;2024-02-26T06:13:34;13.10;63.40
80296;DHT22;74188;42.148;24.762;2024-02-26T06:16:00;13.20;63.10
80296;DHT22;74188;42.148;24.762;2024-02-26T06:18:26;13.30;62.80
80296;DHT22;74188;42.148;24.762;2024-02-26T06:20:52;13.30;62.60
80296;DHT22;74188;42.148;24.762;2024-02-26T06:23:17;13.40;62.60
80296;DHT22;74188;42.148;24.762;2024-02-26T06:25:43;13.40;62.30
80296;DHT22;74188;42.148;24.762;2024-02-26T06:28:09;13.50;62.20
80296;DHT22;74188;42.148;24.762;2024-02-26T06:30:34;13.50;62.00
80296;DHT22;74188;42.148;24.762;2024-02-26T06:33:00;13.50;62.00
80296;DHT22;74188;42.148;24.762;2024-02-26T06:35:26;13.50;62.10
80296;DHT22;74188;42.148;24.762;2024-02-26T06:37:52;13.50;62.10
80296;DHT22;74188;42.148;24.762;2024-02-26T06:40:21;13.60;62.10
80296;DHT22;74188;42.148;24.762;2024-02-26T06:42:47;13.60;62.10
80296;DHT22;74188;42.148;24.762;2024-02-26T06:45:13;13.60;61.90
80296;DHT22;74188;42.148;24.762;2024-02-26T06:47:38;13.60;61.90
80296;DHT22;74188;42.148;24.762;2024-02-26T06:50:04;13.60;61.80
80296;DHT22;74188;42.148;24.762;2024-02-26T06:52:30;13.70;61.80
80296;DHT22;74188;42.148;24.762;2024-02-26T06:54:55;13.70;61.60
80296;DHT22;74188;42.148;24.762;2024-02-26T06:57:21;13.70;61.40
80296;DHT22;74188;42.148;24.762;2024-02-26T06:59:47;13.80;61.50
80296;DHT22;74188;42.148;24.762;2024-02-26T07:02:13;13.80;61.50
80296;DHT22;74188;42.148;24.762;2024-02-26T07:04:39;13.80;61.30
80296;DHT22;74188;42.148;24.762;2024-02-26T07:07:06;13.80;61.30
80296;DHT22;74188;42.148;24.762;2024-02-26T07:09:32;13.70;61.50
80296;DHT22;74188;42.148;24.762;2024-02-26T07:11:58;13.70;61.30
80296;DHT22;74188;42.148;24.762;2024-02-26T07:14:23;13.80;61.10
80296;DHT22;74188;42.148;24.762;2024-02-26T07:16:50;13.90;61.20
80296;DHT22;74188;42.148;24.762;2024-02-26T07:19:16;13.90;61.00
80296;DHT22;74188;42.148;24.762;2024-02-26T07:21:42;14.00;60.70
80296;DHT22;74188;42.148;24.762;2024-02-26T07:24:08;14.10;60.40
80296;DHT22;74188;42.148;24.762;2024-02-26T07:26:34;14.10;60.20
80296;DHT22;74188;42.148;24.762;2024-02-26T07:28:59;14.10;60.40
80296;DHT22;74188;42.148;24.762;2024-02-26T07:31:26;14.10;60.40
80296;DHT22;74188;42.148;24.762;2024-02-26T07:33:52;14.10;60.30
80296;DHT22;74188;42.148;24.762;2024-02-26T07:36:17;14.20;60.20
80296;DHT22;74188;42.148;24.762;2024-02-26T07:38:43;14.30;60.00
80296;DHT22;74188;42.148;24.762;2024-02-26T07:41:09;14.30;59.50
80296;DHT22;74188;42.148;24.762;2024-02-26T07:43:35;14.40;59.40
80296;DHT22;74188;42.148;24.762;2024-02-26T07:46:00;14.40;59.40
80296;DHT22;74188;42.148;24.762;2024-02-26T07:48:26;14.40;59.40
80296;DHT22;74188;42.148;24.762;2024-02-26T07:50:52;14.40;59.40
80296;DHT22;74188;42.148;24.762;2024-02-26T07:53:17;14.40;59.40
80296;DHT22;74188;42.148;24.762;2024-02-26T07:55:43;14.40;59.30
80296;DHT22;74188;42.148;24.762;2024-02-26T07:58:09;14.40;59.30
80296;DHT22;74188;42.148;24.762;2024-02-26T08:00:34;14.50;59.20
80296;DHT22;74188;42.148;24.762;2024-02-26T08:03:00;14.50;59.00
80296;DHT22;74188;42.148;24.762;2024-02-26T08:05:26;14.60;58.70
80296;DHT22;74188;42.148;24.762;2024-02-26T08:07:52;14.60;58.70
80296;DHT22;74188;42.148;24.762;2024-02-26T08:10:17;14.60;58.80
80296;DHT22;74188;42.148;24.762;2024-02-26T08:12:43;14.60;58.50
80296;DHT22;74188;42.148;24.762;2024-02-26T08:15:10;14.70;58.30
80296;DHT22;74188;42.148;24.762;2024-02-26T08:17:36;14.80;58.00
80296;DHT22;74188;42.148;24.762;2024-02-26T08:20:02;14.80;57.70
80296;DHT22;74188;42.148;24.762;2024-02-26T08:22:28;14.80;57.60
80296;DHT22;74188;42.148;24.762;2024-02-26T08:24:54;15.00;57.30
80296;DHT22;74188;42.148;24.762;2024-02-26T08:27:19;15.00;57.20
80296;DHT22;74188;42.148;24.762;2024-02-26T08:29:45;15.20;56.70
80296;DHT22;74188;42.148;24.762;2024-02-26T08:32:11;15.20;56.40
80296;DHT22;74188;42.148;24.762;2024-02-26T08:34:36;15.30;56.10
80296;DHT22;74188;42.148;24.762;2024-02-26T08:37:02;15.40;56.10
80296;DHT22;74188;42.148;24.762;2024-02-26T08:39:28;15.40;55.80
80296;DHT22;74188;42.148;24.762;2024-02-26T08:41:53;15.40;55.70
80296;DHT22;74188;42.148;24.762;2024-02-26T08:44:19;15.60;55.50
80296;DHT22;74188;42.148;24.762;2024-02-26T08:46:45;15.70;55.10
80296;DHT22;74188;42.148;24.762;2024-02-26T08:49:11;15.80;54.70
80296;DHT22;74188;42.148;24.762;2024-02-26T08:51:42;15.90;54.40
80296;DHT22;74188;42.148;24.762;2024-02-26T08:54:08;16.00;54.00
80296;DHT22;74188;42.148;24.762;2024-02-26T08:56:34;16.10;54.00
80296;DHT22;74188;42.148;24.762;2024-02-26T08:58:59;16.10;53.60
80296;DHT22;74188;42.148;24.762;2024-02-26T09:01:29;16.10;53.40
80296;DHT22;74188;42.148;24.762;2024-02-26T09:03:55;16.30;53.00
80296;DHT22;74188;42.148;24.762;2024-02-26T09:06:21;16.40;53.40
80296;DHT22;74188;42.148;24.762;2024-02-26T09:08:47;16.50;52.30
80296;DHT22;74188;42.148;24.762;2024-02-26T09:11:13;16.60;51.60
80296;DHT22;74188;42.148;24.762;2024-02-26T09:13:38;16.60;51.30
80296;DHT22;74188;42.148;24.762;2024-02-26T09:16:05;16.70;51.20
80296;DHT22;74188;42.148;24.762;2024-02-26T09:18:31;16.80;51.00
80296;DHT22;74188;42.148;24.762;2024-02-26T09:20:57;16.90;50.70
80296;DHT22;74188;42.148;24.762;2024-02-26T09:23:22;16.90;50.60
80296;DHT22;74188;42.148;24.762;2024-02-26T09:25:48;16.90;50.50
80296;DHT22;74188;42.148;24.762;2024-02-26T09:28:14;17.00;50.30
80296;DHT22;74188;42.148;24.762;2024-02-26T09:30:43;17.20;49.70
80296;DHT22;74188;42.148;24.762;2024-02-26T09:33:08;17.20;49.40
80296;DHT22;74188;42.148;24.762;2024-02-26T09:35:34;17.30;49.10
80296;DHT22;74188;42.148;24.762;2024-02-26T09:38:00;17.30;48.70
80296;DHT22;74188;42.148;24.762;2024-02-26T09:40:26;17.30;48.60
80296;DHT22;74188;42.148;24.762;2024-02-26T09:42:57;17.50;48.40
80296;DHT22;74188;42.148;24.762;2024-02-26T09:45:25;17.80;47.90
80296;DHT22;74188;42.148;24.762;2024-02-26T09:47:55;18.10;46.50
80296;DHT22;74188;42.148;24.762;2024-02-26T09:50:22;18.50;45.30
80296;DHT22;74188;42.148;24.762;2024-02-26T09:52:49;19.10;43.70
80296;DHT22;74188;42.148;24.762;2024-02-26T09:55:15;19.50;42.10
80296;DHT22;74188;42.148;24.762;2024-02-26T09:57:45;19.80;41.60
80296;DHT22;74188;42.148;24.762;2024-02-26T10:00:21;20.00;40.60
80296;DHT22;74188;42.148;24.762;2024-02-26T10:02:48;20.10;40.20
80296;DHT22;74188;42.148;24.762;2024-02-26T10:05:17;20.00;40.10
80296;DHT22;74188;42.148;24.762;2024-02-26T10:07:44;20.10;39.90
80296;DHT22;74188;42.148;24.762;2024-02-26T10:10:10;20.50;40.70
80296;DHT22;74188;42.148;24.762;2024-02-26T10:12:36;21.00;38.30
80296;DHT22;74188;42.148;24.762;2024-02-26T10:15:02;21.50;37.50
80296;DHT22;74188;42.148;24.762;2024-02-26T10:17:28;21.80;36.20
80296;DHT22;74188;42.148;24.762;2024-02-26T10:19:54;22.10;35.40
80296;DHT22;74188;42.148;24.762;2024-02-26T10:22:35;22.30;35.30
80296;DHT22;74188;42.148;24.762;2024-02-26T10:25:01;22.50;34.50
80296;DHT22;74188;42.148;24.762;2024-02-26T10:27:28;22.70;34.30
80296;DHT22;74188;42.148;24.762;2024-02-26T10:29:56;22.90;34.00
80296;DHT22;74188;42.148;24.762;2024-02-26T10:32:22;23.00;33.30
80296;DHT22;74188;42.148;24.762;2024-02-26T10:34:48;22.90;33.20
80296;DHT22;74188;42.148;24.762;2024-02-26T10:37:14;22.80;33.50
80296;DHT22;74188;42.148;24.762;2024-02-26T10:39:46;22.80;33.50
80296;DHT22;74188;42.148;24.762;2024-02-26T10:42:12;22.70;33.40
80296;DHT22;74188;42.148;24.762;2024-02-26T10:44:40;22.60;33.80
80296;DHT22;74188;42.148;24.762;2024-02-26T10:47:07;22.70;33.60
80296;DHT22;74188;42.148;24.762;2024-02-26T10:49:35;22.60;33.00
80296;DHT22;74188;42.148;24.762;2024-02-26T10:52:01;22.50;33.80
80296;DHT22;74188;42.148;24.762;2024-02-26T10:54:29;22.40;33.40
80296;DHT22;74188;42.148;24.762;2024-02-26T10:56:57;22.30;34.10
80296;DHT22;74188;42.148;24.762;2024-02-26T10:59:26;22.20;34.20
80296;DHT22;74188;42.148;24.762;2024-02-26T11:01:52;22.50;34.00
80296;DHT22;74188;42.148;24.762;2024-02-26T11:04:18;23.00;33.10
80296;DHT22;74188;42.148;24.762;2024-02-26T11:06:45;23.40;32.10
80296;DHT22;74188;42.148;24.762;2024-02-26T11:09:13;23.70;31.30
80296;DHT22;74188;42.148;24.762;2024-02-26T11:11:40;23.90;30.80
80296;DHT22;74188;42.148;24.762;2024-02-26T11:14:08;24.00;30.40
80296;DHT22;74188;42.148;24.762;2024-02-26T11:16:35;23.90;30.20
80296;DHT22;74188;42.148;24.762;2024-02-26T11:19:02;24.00;30.00
80296;DHT22;74188;42.148;24.762;2024-02-26T11:21:28;24.10;30.00
80296;DHT22;74188;42.148;24.762;2024-02-26T11:24:14;24.10;30.20
80296;DHT22;74188;42.148;24.762;2024-02-26T11:26:50;24.40;30.00
80296;DHT22;74188;42.148;24.762;2024-02-26T11:29:25;24.80;29.30
80296;DHT22;74188;42.148;24.762;2024-02-26T11:31:52;24.80;28.60
80296;DHT22;74188;42.148;24.762;2024-02-26T11:34:18;24.70;28.70
80296;DHT22;74188;42.148;24.762;2024-02-26T11:36:45;24.60;28.90
80296;DHT22;74188;42.148;24.762;2024-02-26T11:39:12;24.00;29.50
80296;DHT22;74188;42.148;24.762;2024-02-26T11:41:38;23.70;30.00
80296;DHT22;74188;42.148;24.762;2024-02-26T11:44:04;23.70;30.00
80296;DHT22;74188;42.148;24.762;2024-02-26T11:46:32;23.60;30.20
80296;DHT22;74188;42.148;24.762;2024-02-26T11:49:00;23.30;30.60
80296;DHT22;74188;42.148;24.762;2024-02-26T11:51:33;23.20;31.10
80296;DHT22;74188;42.148;24.762;2024-02-26T11:54:00;23.20;31.20
80296;DHT22;74188;42.148;24.762;2024-02-26T11:56:26;23.20;31.50
80296;DHT22;74188;42.148;24.762;2024-02-26T11:59:00;23.20;31.00
80296;DHT22;74188;42.148;24.762;2024-02-26T12:01:47;23.10;31.30
80296;DHT22;74188;42.148;24.762;2024-02-26T12:04:17;23.10;31.80
80296;DHT22;74188;42.148;24.762;2024-02-26T12:06:46;22.90;32.00
80296;DHT22;74188;42.148;24.762;2024-02-26T12:09:12;22.90;31.80
80296;DHT22;74188;42.148;24.762;2024-02-26T12:11:39;22.90;32.30
80296;DHT22;74188;42.148;24.762;2024-02-26T12:14:07;22.90;32.30
80296;DHT22;74188;42.148;24.762;2024-02-26T12:16:39;22.80;32.50
80296;DHT22;74188;42.148;24.762;2024-02-26T12:19:06;22.80;32.90
80296;DHT22;74188;42.148;24.762;2024-02-26T12:21:36;22.90;32.50
80296;DHT22;74188;42.148;24.762;2024-02-26T12:24:13;23.20;32.10
80296;DHT22;74188;42.148;24.762;2024-02-26T12:26:39;23.30;31.20
80296;DHT22;74188;42.148;24.762;2024-02-26T12:29:06;23.40;31.00
80296;DHT22;74188;42.148;24.762;2024-02-26T12:31:35;23.90;30.30
80296;DHT22;74188;42.148;24.762;2024-02-26T12:34:04;25.10;28.90
80296;DHT22;74188;42.148;24.762;2024-02-26T12:36:31;25.90;27.40
80296;DHT22;74188;42.148;24.762;2024-02-26T12:38:57;26.00;27.10
80296;DHT22;74188;42.148;24.762;2024-02-26T12:41:22;25.80;27.10
80296;DHT22;74188;42.148;24.762;2024-02-26T12:43:48;25.60;27.50
80296;DHT22;74188;42.148;24.762;2024-02-26T12:46:15;25.40;27.80
80296;DHT22;74188;42.148;24.762;2024-02-26T12:48:46;25.30;27.90
80296;DHT22;74188;42.148;24.762;2024-02-26T12:51:12;25.10;27.70
80296;DHT22;74188;42.148;24.762;2024-02-26T12:53:39;24.70;28.00
80296;DHT22;74188;42.148;24.762;2024-02-26T12:56:08;24.30;28.60
80296;DHT22;74188;42.148;24.762;2024-02-26T12:58:34;24.10;29.10
80296;DHT22;74188;42.148;24.762;2024-02-26T13:01:01;23.90;29.40
80296;DHT22;74188;42.148;24.762;2024-02-26T13:03:27;23.70;30.00
80296;DHT22;74188;42.148;24.762;2024-02-26T13:05:53;23.70;30.00
80296;DHT22;74188;42.148;24.762;2024-02-26T13:08:20;23.60;30.00
80296;DHT22;74188;42.148;24.762;2024-02-26T13:10:47;23.20;30.70
80296;DHT22;74188;42.148;24.762;2024-02-26T13:13:15;23.10;30.70
80296;DHT22;74188;42.148;24.762;2024-02-26T13:15:43;22.80;31.60
80296;DHT22;74188;42.148;24.762;2024-02-26T13:18:18;22.70;31.70
80296;DHT22;74188;42.148;24.762;2024-02-26T13:20:44;22.70;31.80
80296;DHT22;74188;42.148;24.762;2024-02-26T13:23:13;22.40;32.40
80296;DHT22;74188;42.148;24.762;2024-02-26T13:25:39;22.20;33.00
80296;DHT22;74188;42.148;24.762;2024-02-26T13:28:16;22.10;33.20
80296;DHT22;74188;42.148;24.762;2024-02-26T13:30:51;22.20;33.30
80296;DHT22;74188;42.148;24.762;2024-02-26T13:33:17;22.10;33.20
80296;DHT22;74188;42.148;24.762;2024-02-26T13:35:43;22.10;33.30
80296;DHT22;74188;42.148;24.762;2024-02-26T13:38:10;22.10;33.40
80296;DHT22;74188;42.148;24.762;2024-02-26T13:40:37;22.10;33.40
80296;DHT22;74188;42.148;24.762;2024-02-26T13:43:04;22.10;33.40
80296;DHT22;74188;42.148;24.762;2024-02-26T13:45:30;22.10;33.30
80296;DHT22;74188;42.148;24.762;2024-02-26T13:48:03;22.20;33.30
80296;DHT22;74188;42.148;24.762;2024-02-26T13:50:29;22.10;33.60
80296;DHT22;74188;42.148;24.762;2024-02-26T13:52:55;21.90;34.00
80296;DHT22;74188;42.148;24.762;2024-02-26T13:55:22;21.70;34.60
80296;DHT22;74188;42.148;24.762;2024-02-26T13:57:52;21.40;35.30
80296;DHT22;74188;42.148;24.762;2024-02-26T14:00:19;21.10;36.10
80296;DHT22;74188;42.148;24.762;2024-02-26T14:02:45;20.90;36.60
80296;DHT22;74188;42.148;24.762;2024-02-26T14:05:10;20.80;37.00
80296;DHT22;74188;42.148;24.762;2024-02-26T14:07:36;20.80;37.10
80296;DHT22;74188;42.148;24.762;2024-02-26T14:10:02;20.60;37.40
80296;DHT22;74188;42.148;24.762;2024-02-26T14:12:28;20.60;37.70
80296;DHT22;74188;42.148;24.762;2024-02-26T14:14:54;20.60;37.30
80296;DHT22;74188;42.148;24.762;2024-02-26T14:17:21;20.40;37.80
80296;DHT22;74188;42.148;24.762;2024-02-26T14:19:48;20.30;38.00
80296;DHT22;74188;42.148;24.762;2024-02-26T14:22:14;20.20;38.20
80296;DHT22;74188;42.148;24.762;2024-02-26T14:24:41;20.20;37.30
80296;DHT22;74188;42.148;24.762;2024-02-26T14:27:11;20.00;36.90
80296;DHT22;74188;42.148;24.762;2024-02-26T14:29:41;20.10;36.80
80296;DHT22;74188;42.148;24.762;2024-02-26T14:32:09;19.90;36.90
80296;DHT22;74188;42.148;24.762;2024-02-26T14:34:34;19.90;36.90
80296;DHT22;74188;42.148;24.762;2024-02-26T14:37:00;19.90;37.10
80296;DHT22;74188;42.148;24.762;2024-02-26T14:39:26;19.90;36.90
80296;DHT22;74188;42.148;24.762;2024-02-26T14:41:51;19.90;36.90
80296;DHT22;74188;42.148;24.762;2024-02-26T14:44:17;19.80;36.90
80296;DHT22;74188;42.148;24.762;2024-02-26T14:46:43;19.80;37.20
80296;DHT22;74188;42.148;24.762;2024-02-26T14:49:08;19.80;37.40
80296;DHT22;74188;42.148;24.762;2024-02-26T14:51:34;19.80;37.30
80296;DHT22;74188;42.148;24.762;2024-02-26T14:54:00;19.80;37.40
80296;DHT22;74188;42.148;24.762;2024-02-26T14:56:27;19.70;37.60
80296;DHT22;74188;42.148;24.762;2024-02-26T14:58:53;19.70;37.70
80296;DHT22;74188;42.148;24.762;2024-02-26T15:01:19;19.60;38.10
80296;DHT22;74188;42.148;24.762;2024-02-26T15:03:44;19.60;38.30
80296;DHT22;74188;42.148;24.762;2024-02-26T15:06:10;19.50;38.50
80296;DHT22;74188;42.148;24.762;2024-02-26T15:08:36;19.40;38.80
80296;DHT22;74188;42.148;24.762;2024-02-26T15:11:03;19.30;39.00